GMFF

Saïss Airport

Fes, Morocco
METAR GMFF 151300Z 30005KT 260V340 9999 SCT033 BKN100 16/07 Q1020 NOSIG
Observed Flight Rules
Dec-15 @ 13:00 UTC (an hour ago) Visual Flight Rules
Wind Visibility Clouds
300° at 5 knots 10,000+ meters
  • Scattered at 3,300' AGL
  • Broken at 10,000' AGL
Temperatures Readings
Current 16°C / 61°F
Dewpoint 7°C / 45°F
Humidity 55%
Altimeter 30.12" Hg
Pressure 1020 hPa
Elevation 579
METAR GMFF 151300Z 30005KT 260V340 9999 SCT033 BKN100 16/07 Q1020 NOSIG
Observed Flight Rules
Dec-15 @ 13:00 UTC
(an hour ago)
VFR
Wind Visibility
300° at 5 knots 10,000+ meters
Clouds
  • Scattered at 3,300' AGL
  • Broken at 10,000' AGL
Temperature Dewpoint
16°C / 61°F 7°C / 45°F
Humidity Altimeter Pressure
55% 30.12" Hg 1020 hPa